Time;durP1;ratioP1;P1;durP2;ratioP2;P2;SDS_P1;SDS_P2;PMS_P1;PMS_P2;Temp;Humidity;BMP_temperature;BMP_pressure;BME280_temperature;BME280_humidity;BME280_pressure;Samples;Min_cycle;Max_cycle;Signal;HPM_P1;HPM_P2
2022/07/22 00:01:25;;;;;;;;;31.67;23.67;;;;;21.90;65.22;101345.59;5059170;28;47079;-60
2022/07/22 00:03:51;;;;;;;;;17.00;16.33;;;;;21.82;65.22;101346.28;5059174;28;45307;-59
2022/07/22 00:06:16;;;;;;;;;25.00;25.00;;;;;21.80;64.51;101340.16;5059130;28;45331;-59
2022/07/22 00:08:42;;;;;;;;;25.33;22.67;;;;;21.79;65.66;101349.28;5059260;28;45616;-60
2022/07/22 00:11:07;;;;;;;;;23.67;20.67;;;;;21.77;65.08;101341.28;5058197;28;45727;-60
2022/07/22 00:13:32;;;;;;;;;28.67;24.33;;;;;21.75;64.96;101348.69;5059051;28;45332;-60
2022/07/22 00:15:58;;;;;;;;;30.00;22.33;;;;;21.72;65.25;101332.72;5059234;28;45606;-60
2022/07/22 00:18:24;;;;;;;;;25.00;22.33;;;;;21.68;64.62;101336.69;5059252;28;45513;-61
2022/07/22 00:20:50;;;;;;;;;21.67;18.67;;;;;21.72;65.13;101340.84;5058702;28;45384;-60
2022/07/22 00:23:15;;;;;;;;;24.00;23.00;;;;;21.68;64.81;101335.84;5058875;28;45413;-60
2022/07/22 00:25:41;;;;;;;;;23.00;22.33;;;;;21.59;65.30;101336.69;5059018;28;45626;-60
2022/07/22 00:28:06;;;;;;;;;24.00;21.67;;;;;21.58;65.22;101338.53;5058968;28;45401;-62
2022/07/22 00:30:32;;;;;;;;;22.00;21.33;;;;;21.50;65.55;101332.97;5058764;28;46096;-60
2022/07/22 00:32:57;;;;;;;;;20.33;20.00;;;;;21.50;65.17;101330.28;5058435;28;45322;-61
2022/07/22 00:35:23;;;;;;;;;20.00;19.00;;;;;21.51;65.68;101329.28;5057592;28;45411;-60
2022/07/22 00:37:48;;;;;;;;;23.00;21.67;;;;;21.41;65.27;101323.81;5057400;28;45322;-60
2022/07/22 00:40:13;;;;;;;;;21.33;21.33;;;;;21.39;65.77;101319.53;5058501;28;47169;-60
2022/07/22 00:42:39;;;;;;;;;19.67;19.67;;;;;21.35;65.62;101324.34;5058802;28;45759;-61
2022/07/22 00:45:06;;;;;;;;;20.67;19.67;;;;;21.37;65.50;101321.53;5057887;28;45315;-63
2022/07/22 00:47:32;;;;;;;;;23.00;20.33;;;;;21.36;65.50;101323.41;5058717;28;45230;-61
2022/07/22 00:49:57;;;;;;;;;19.00;18.00;;;;;21.28;65.76;101306.13;5058436;28;45552;-64
2022/07/22 00:52:22;;;;;;;;;21.67;21.67;;;;;21.23;65.72;101302.97;5058319;28;45346;-62
2022/07/22 00:54:49;;;;;;;;;21.33;19.67;;;;;21.24;65.82;101310.06;5057772;28;45330;-62
2022/07/22 00:57:14;;;;;;;;;24.00;18.00;;;;;21.19;66.21;101303.22;5057505;28;45633;-61
2022/07/22 00:59:40;;;;;;;;;18.33;16.33;;;;;21.14;66.26;101310.03;5058609;28;45402;-61
2022/07/22 01:02:06;;;;;;;;;15.00;13.33;;;;;21.13;65.76;101309.19;5058682;28;45594;-62
2022/07/22 01:04:31;;;;;;;;;19.67;19.67;;;;;21.08;66.04;101306.00;5058148;28;45353;-60
2022/07/22 01:06:57;;;;;;;;;19.00;18.33;;;;;20.98;66.21;101297.03;5058333;28;45608;-61
2022/07/22 01:09:22;;;;;;;;;14.33;14.33;;;;;21.08;65.65;101300.59;5057954;28;46150;-61
2022/07/22 01:11:47;;;;;;;;;13.33;13.00;;;;;21.05;66.00;101300.88;5057755;28;45345;-60
2022/07/22 01:14:13;;;;;;;;;19.00;17.00;;;;;21.02;66.16;101300.31;5058183;28;45308;-61
2022/07/22 01:16:38;;;;;;;;;8.67;8.33;;;;;21.03;66.07;101302.00;5058747;28;45217;-60
2022/07/22 01:19:05;;;;;;;;;19.33;17.00;;;;;21.01;65.84;101299.44;5057924;28;45378;-60
2022/07/22 01:21:31;;;;;;;;;18.00;17.33;;;;;21.02;65.84;101301.16;5058220;28;45300;-62
2022/07/22 01:23:57;;;;;;;;;17.67;17.67;;;;;20.95;65.69;101291.88;5058572;28;45395;-59
2022/07/22 01:26:22;;;;;;;;;20.67;17.67;;;;;20.97;65.77;101289.91;5057348;28;45279;-60
2022/07/22 01:28:48;;;;;;;;;21.00;16.67;;;;;20.95;65.98;101294.56;5057631;28;45375;-60
2022/07/22 01:31:13;;;;;;;;;19.33;18.33;;;;;20.94;65.81;101294.72;5057888;28;45323;-60
2022/07/22 01:33:39;;;;;;;;;18.33;16.33;;;;;20.79;66.16;101278.00;5056805;28;45307;-61
2022/07/22 01:36:06;;;;;;;;;17.33;14.67;;;;;20.77;66.36;101290.81;5058094;28;45511;-61
2022/07/22 01:38:31;;;;;;;;;16.00;16.00;;;;;20.80;66.57;101301.34;5057405;28;46060;-58
2022/07/22 01:40:57;;;;;;;;;20.33;17.33;;;;;20.80;66.28;101291.38;5057276;28;45371;-63
2022/07/22 01:43:22;;;;;;;;;21.00;18.33;;;;;20.78;66.17;101292.50;5057573;28;45314;-60
2022/07/22 01:45:50;;;;;;;;;17.33;17.33;;;;;20.78;65.70;101287.09;5057898;28;45461;-61
2022/07/22 01:48:17;;;;;;;;;20.67;19.00;;;;;20.74;65.98;101293.78;5057409;28;46193;-62
2022/07/22 01:50:43;;;;;;;;;24.33;18.00;;;;;20.76;66.19;101299.91;5057710;28;45453;-61
2022/07/22 01:53:09;;;;;;;;;20.67;16.00;;;;;20.73;66.10;101289.38;5057859;28;45401;-61
2022/07/22 01:55:34;;;;;;;;;20.00;18.33;;;;;20.80;65.82;101295.94;5057427;28;45518;-60
2022/07/22 01:58:00;;;;;;;;;19.33;18.00;;;;;20.75;65.95;101293.63;5057213;28;46514;-59
2022/07/22 02:00:26;;;;;;;;;16.67;15.67;;;;;20.69;65.89;101283.34;5056143;28;45485;-61
2022/07/22 02:02:51;;;;;;;;;16.33;16.33;;;;;20.71;66.01;101276.00;5057389;28;45391;-60
2022/07/22 02:05:17;;;;;;;;;16.33;16.33;;;;;20.73;65.66;101284.81;5056443;28;45370;-60
2022/07/22 02:07:42;;;;;;;;;17.00;17.00;;;;;20.77;65.60;101282.69;5057215;28;46094;-60
2022/07/22 02:10:08;;;;;;;;;16.33;16.33;;;;;20.70;65.63;101285.06;5055855;28;45465;-60
2022/07/22 02:12:34;;;;;;;;;17.00;15.50;;;;;20.68;65.69;101278.94;5057425;28;45375;-61
2022/07/22 02:15:00;;;;;;;;;18.33;17.00;;;;;20.64;65.79;101290.16;5057450;28;45237;-59
2022/07/22 02:17:25;;;;;;;;;14.67;14.00;;;;;20.49;66.13;101274.28;5057266;28;45343;-60
2022/07/22 02:19:51;;;;;;;;;15.67;15.67;;;;;20.53;65.92;101286.53;5057080;28;45373;-58
2022/07/22 02:22:16;;;;;;;;;18.33;15.67;;;;;20.55;65.92;101287.25;5057023;28;45368;-59
2022/07/22 02:24:42;;;;;;;;;14.00;12.67;;;;;20.51;66.23;101280.41;5057496;28;45232;-61
2022/07/22 02:27:07;;;;;;;;;23.33;19.00;;;;;20.52;65.98;101284.84;5056674;28;46211;-59
2022/07/22 02:29:33;;;;;;;;;19.00;14.67;;;;;20.49;65.96;101293.22;5057060;28;45251;-61
2022/07/22 02:31:59;;;;;;;;;16.00;16.00;;;;;20.41;66.29;101279.47;5055923;28;45227;-61
2022/07/22 02:34:24;;;;;;;;;16.67;14.00;;;;;20.43;66.30;101291.03;5055561;28;45460;-60
2022/07/22 02:36:50;;;;;;;;;16.67;15.00;;;;;20.41;66.35;101292.13;5056887;28;46115;-62
2022/07/22 02:39:15;;;;;;;;;17.33;15.67;;;;;20.46;66.33;101295.34;5057246;28;45432;-61
2022/07/22 02:41:41;;;;;;;;;17.00;15.00;;;;;20.35;65.82;101268.34;5057013;28;45362;-61
2022/07/22 02:44:06;;;;;;;;;19.33;16.00;;;;;20.42;66.31;101294.72;5038687;28;45798;-61
2022/07/22 02:46:31;;;;;;;;;20.67;17.00;;;;;20.26;66.34;101281.66;5056731;28;46113;-61
2022/07/22 02:48:57;;;;;;;;;18.67;14.67;;;;;20.30;66.46;101276.81;5055124;28;45966;-61
2022/07/22 02:51:23;;;;;;;;;17.33;17.33;;;;;20.31;66.42;101278.53;5056477;28;45381;-62
2022/07/22 02:53:49;;;;;;;;;16.33;16.33;;;;;20.31;66.67;101283.94;5056407;28;45426;-61
2022/07/22 02:56:15;;;;;;;;;19.00;19.00;;;;;20.39;66.41;101294.97;5056776;28;45319;-60
2022/07/22 02:58:42;;;;;;;;;14.67;13.33;;;;;20.37;66.03;101285.28;5055106;28;45247;-61
2022/07/22 03:01:08;;;;;;;;;20.00;14.67;;;;;20.35;66.12;101280.00;5056529;28;45247;-61
2022/07/22 03:03:33;;;;;;;;;17.00;17.00;;;;;20.37;66.05;101287.97;5056541;28;45243;-61
2022/07/22 03:05:58;;;;;;;;;16.33;14.33;;;;;20.36;65.79;101275.47;5056420;28;46093;-61
2022/07/22 03:08:25;;;;;;;;;20.00;15.67;;;;;20.33;65.91;101273.88;5056337;28;45328;-62
2022/07/22 03:10:50;;;;;;;;;19.33;17.00;;;;;20.27;66.22;101279.81;5056330;28;45249;-60
2022/07/22 03:13:16;;;;;;;;;20.67;18.00;;;;;20.20;66.55;101265.97;5056535;28;45349;-61
2022/07/22 03:15:41;;;;;;;;;18.67;18.33;;;;;20.22;66.06;101266.69;5055993;28;45236;-60
2022/07/22 03:18:06;;;;;;;;;15.67;14.00;;;;;20.20;66.51;101271.38;5055580;28;45493;-60
2022/07/22 03:20:33;;;;;;;;;19.67;17.00;;;;;20.11;66.46;101263.19;5056054;28;45817;-60
2022/07/22 03:22:58;;;;;;;;;16.00;16.00;;;;;20.10;66.77;101275.84;5056429;28;45419;-61
2022/07/22 03:25:24;;;;;;;;;12.33;12.33;;;;;20.07;66.49;101276.13;5056116;28;46217;-59
2022/07/22 03:27:49;;;;;;;;;14.67;14.67;;;;;20.06;66.65;101265.44;5056340;28;45388;-59
2022/07/22 03:30:15;;;;;;;;;14.33;14.33;;;;;20.06;66.47;101262.75;5056749;28;45298;-60
2022/07/22 03:32:44;;;;;;;;;20.33;18.33;;;;;20.01;66.63;101258.56;5056124;28;45236;-59
2022/07/22 03:35:10;;;;;;;;;11.33;11.33;;;;;20.00;66.60;101275.78;5056077;28;46205;-63
2022/07/22 03:37:36;;;;;;;;;16.67;15.67;;;;;19.90;66.73;101269.44;5055666;28;45356;-60
2022/07/22 03:40:01;;;;;;;;;17.33;15.67;;;;;19.90;67.18;101272.13;5056050;28;45702;-62
2022/07/22 03:42:27;;;;;;;;;19.33;17.67;;;;;19.86;67.33;101284.19;5056070;28;45262;-61
2022/07/22 03:44:52;;;;;;;;;16.00;15.00;;;;;19.82;67.15;101273.78;5055864;28;45308;-61
2022/07/22 03:47:19;;;;;;;;;14.00;12.67;;;;;19.80;67.27;101278.47;5056102;28;45443;-63
2022/07/22 03:49:46;;;;;;;;;20.00;15.67;;;;;19.77;67.36;101284.94;5056101;28;45439;-62
2022/07/22 03:52:12;;;;;;;;;18.67;18.33;;;;;19.74;67.22;101274.41;5056116;28;45219;-61
2022/07/22 03:54:38;;;;;;;;;15.00;13.00;;;;;19.72;67.58;101281.78;5054585;28;46456;-61
2022/07/22 03:57:03;;;;;;;;;15.67;14.00;;;;;19.71;67.73;101285.47;5055832;28;45438;-61
2022/07/22 03:59:29;;;;;;;;;15.67;13.00;;;;;19.68;67.56;101266.84;5056153;28;45413;-61
2022/07/22 04:01:54;;;;;;;;;16.33;16.33;;;;;19.64;67.57;101268.06;5056251;28;45389;-60
2022/07/22 04:04:19;;;;;;;;;18.67;16.33;;;;;19.67;67.68;101275.94;5055665;28;45453;-62
2022/07/22 04:06:45;;;;;;;;;14.67;12.67;;;;;19.64;68.14;101274.31;5055646;28;45559;-62
2022/07/22 04:09:10;;;;;;;;;16.00;16.00;;;;;19.62;68.24;101280.81;5056015;28;45450;-62
2022/07/22 04:11:36;;;;;;;;;17.00;14.33;;;;;19.51;68.18;101272.72;5056056;28;45367;-60
2022/07/22 04:14:01;;;;;;;;;18.00;14.33;;;;;19.50;68.45;101279.13;5055659;28;45823;-62
2022/07/22 04:16:27;;;;;;;;;19.33;15.00;;;;;19.44;68.39;101277.78;5055523;28;45354;-61
2022/07/22 04:18:52;;;;;;;;;18.00;18.00;;;;;19.47;68.59;101279.38;5055473;28;45367;-62
2022/07/22 04:21:17;;;;;;;;;14.00;14.00;;;;;19.51;68.32;101272.72;5056087;28;45267;-61
2022/07/22 04:23:43;;;;;;;;;13.67;13.00;;;;;19.50;68.08;101271.03;5055440;28;45927;-59
2022/07/22 04:26:08;;;;;;;;;15.00;15.00;;;;;19.51;68.05;101270.88;5055442;28;45355;-60
2022/07/22 04:28:34;;;;;;;;;14.33;13.33;;;;;19.43;68.10;101263.44;5056753;28;45338;-64
2022/07/22 04:31:01;;;;;;;;;18.33;17.33;;;;;19.52;68.16;101269.03;5059261;28;45232;-60
2022/07/22 04:33:27;;;;;;;;;18.00;16.33;;;;;19.45;68.17;101264.19;5058837;28;45496;-61
2022/07/22 04:35:52;;;;;;;;;17.00;14.50;;;;;19.40;68.48;101263.72;5058820;28;45688;-60
2022/07/22 04:38:18;;;;;;;;;17.67;16.33;;;;;19.37;68.15;101266.63;5059566;28;45346;-62
2022/07/22 04:40:43;;;;;;;;;17.33;16.33;;;;;19.36;68.23;101259.53;5059466;28;45326;-62
2022/07/22 04:43:09;;;;;;;;;18.00;18.00;;;;;19.36;68.86;101264.06;5058688;28;45326;-62
2022/07/22 04:45:34;;;;;;;;;16.67;16.67;;;;;19.38;68.13;101273.75;5059278;28;45256;-60
2022/07/22 04:47:59;;;;;;;;;18.00;16.00;;;;;19.33;68.14;101253.53;5058981;28;45363;-63
2022/07/22 04:50:25;;;;;;;;;16.00;16.00;;;;;19.37;68.28;101265.78;5058836;28;45463;-61
2022/07/22 04:52:50;;;;;;;;;17.33;15.67;;;;;19.40;68.10;101261.00;5057482;28;47899;-61
2022/07/22 04:55:16;;;;;;;;;17.00;17.00;;;;;19.37;68.08;101250.44;5058469;28;45444;-61
2022/07/22 04:57:41;;;;;;;;;17.33;15.67;;;;;19.39;67.75;101258.41;5058475;28;45377;-61
2022/07/22 05:00:07;;;;;;;;;14.67;14.67;;;;;19.38;68.35;101257.56;5058617;28;45347;-60
2022/07/22 05:02:32;;;;;;;;;16.67;13.67;;;;;19.37;68.15;101255.84;5058264;28;46861;-61
2022/07/22 05:04:58;;;;;;;;;18.67;16.00;;;;;19.34;68.33;101256.09;5058114;28;45412;-61
2022/07/22 05:07:24;;;;;;;;;20.00;16.33;;;;;19.25;68.89;101248.75;5040658;28;45273;-62
2022/07/22 05:09:49;;;;;;;;;17.67;14.67;;;;;19.21;69.12;101251.84;5058706;28;45335;-60
2022/07/22 05:12:15;;;;;;;;;16.00;14.67;;;;;19.18;68.90;101250.25;5056920;28;47129;-60
2022/07/22 05:14:40;;;;;;;;;17.33;16.67;;;;;19.23;69.02;101250.72;5057950;28;45240;-60
2022/07/22 05:17:14;;;;;;;;;13.67;13.67;;;;;19.21;68.80;101255.41;5058190;28;45271;-63
2022/07/22 05:19:40;;;;;;;;;14.67;14.67;;;;;19.25;68.90;101243.38;5058214;28;45280;-60
2022/07/22 05:22:07;;;;;;;;;16.67;16.33;;;;;19.17;68.77;101242.31;5057374;28;46172;-60
2022/07/22 05:24:32;;;;;;;;;15.00;13.33;;;;;19.19;68.99;101246.59;5058107;28;45230;-60
2022/07/22 05:26:58;;;;;;;;;26.33;20.67;;;;;19.24;68.70;101238.97;5058082;28;45401;-60
2022/07/22 05:29:24;;;;;;;;;21.67;20.00;;;;;19.35;68.42;101246.16;5058578;28;45323;-59
2022/07/22 05:31:49;;;;;;;;;21.00;21.00;;;;;19.37;68.21;101247.75;5057975;28;45438;-63
2022/07/22 05:34:15;;;;;;;;;21.67;19.67;;;;;19.41;68.15;101251.06;5057856;28;45391;-61
2022/07/22 05:36:40;;;;;;;;;24.33;18.67;;;;;19.39;68.43;101239.53;5058090;28;45917;-61
2022/07/22 05:39:06;;;;;;;;;17.00;16.33;;;;;19.41;68.74;101242.97;5056586;28;45458;-61
2022/07/22 05:41:31;;;;;;;;;16.00;16.00;;;;;19.39;68.16;101232.28;5057756;28;46396;-60
2022/07/22 05:43:57;;;;;;;;;19.00;15.33;;;;;19.43;68.20;101239.16;5057534;28;45432;-61
2022/07/22 05:46:22;;;;;;;;;21.33;16.67;;;;;19.51;68.05;101245.75;5058109;28;45256;-60
2022/07/22 05:48:47;;;;;;;;;24.67;22.00;;;;;19.56;67.82;101246.28;5057920;28;45335;-60
2022/07/22 05:51:13;;;;;;;;;21.33;20.00;;;;;19.58;68.04;101252.41;5056354;28;45878;-61
2022/07/22 05:53:40;;;;;;;;;20.67;20.67;;;;;19.58;67.69;101239.75;5057494;28;45347;-61
2022/07/22 05:56:06;;;;;;;;;20.00;17.00;;;;;19.58;67.61;101242.47;5057989;28;45319;-63
2022/07/22 05:58:31;;;;;;;;;16.33;16.33;;;;;19.64;67.78;101238.38;5057870;28;45444;-62
2022/07/22 06:00:58;;;;;;;;;17.33;16.33;;;;;19.69;67.82;101244.28;5057731;28;45254;-61
2022/07/22 06:03:23;;;;;;;;;20.67;18.67;;;;;19.73;67.34;101229.53;5057743;28;45315;-62
2022/07/22 06:05:49;;;;;;;;;24.33;21.67;;;;;19.77;67.41;101222.88;5057610;28;45365;-62
2022/07/22 06:08:14;;;;;;;;;15.00;15.00;;;;;19.82;67.18;101227.91;5056117;28;45272;-60
2022/07/22 06:10:40;;;;;;;;;18.33;16.00;;;;;19.83;67.16;101219.66;5057152;28;45496;-61
2022/07/22 06:13:05;;;;;;;;;18.67;17.00;;;;;19.83;67.14;101213.41;5057063;28;45970;-61
2022/07/22 06:15:31;;;;;;;;;17.00;17.00;;;;;19.76;67.14;101209.50;5057490;28;45488;-61
2022/07/22 06:17:56;;;;;;;;;18.33;15.67;;;;;19.81;67.33;101240.53;5057505;28;45311;-60
2022/07/22 06:20:22;;;;;;;;;22.67;19.00;;;;;19.86;67.01;101234.75;5057106;28;45477;-60
2022/07/22 06:22:47;;;;;;;;;18.33;15.33;;;;;19.88;67.07;101232.75;5056809;28;45347;-63
2022/07/22 06:25:13;;;;;;;;;21.00;16.67;;;;;19.89;66.98;101248.81;5056817;28;45472;-61
2022/07/22 06:27:38;;;;;;;;;17.33;15.00;;;;;19.93;66.82;101231.41;5057198;28;45832;-60
2022/07/22 06:30:04;;;;;;;;;24.33;18.33;;;;;19.97;66.90;101230.13;5057767;28;46061;-60
2022/07/22 06:32:29;;;;;;;;;17.67;16.67;;;;;20.02;67.19;101227.03;5057272;28;45645;-61
2022/07/22 06:34:54;;;;;;;;;25.00;22.00;;;;;20.11;66.64;101228.09;5057689;28;45412;-62
2022/07/22 06:37:20;;;;;;;;;24.33;21.00;;;;;20.20;66.38;101222.78;5057353;28;45526;-62
2022/07/22 06:39:47;;;;;;;;;26.00;22.33;;;;;20.30;65.97;101228.22;5055247;28;45262;-60
2022/07/22 06:42:13;;;;;;;;;17.00;15.67;;;;;20.33;66.00;101223.41;5056855;28;45237;-65
2022/07/22 06:44:39;;;;;;;;;21.33;17.67;;;;;20.41;65.46;101228.13;5055660;28;45292;-62
2022/07/22 06:47:04;;;;;;;;;25.00;19.67;;;;;20.45;65.75;101226.06;5057322;28;45237;-62
2022/07/22 06:49:30;;;;;;;;;20.33;18.33;;;;;20.47;65.83;101222.25;5056904;28;46133;-59
2022/07/22 06:51:55;;;;;;;;;22.67;18.33;;;;;20.52;66.00;101228.09;5056229;28;45412;-61
2022/07/22 06:54:21;;;;;;;;;19.33;17.00;;;;;20.53;65.30;101227.09;5056797;28;45457;-60
2022/07/22 06:56:46;;;;;;;;;16.67;16.67;;;;;20.57;65.27;101242.06;5055576;28;45393;-61
2022/07/22 06:59:12;;;;;;;;;22.00;18.33;;;;;20.67;64.99;101246.63;5056096;28;46036;-61
2022/07/22 07:01:37;;;;;;;;;22.33;16.33;;;;;20.72;64.87;101247.09;5055860;28;45372;-61
2022/07/22 07:04:03;;;;;;;;;20.67;20.67;;;;;20.70;65.30;101246.38;5054950;28;45426;-61
2022/07/22 07:06:29;;;;;;;;;19.67;17.00;;;;;20.80;64.82;101239.16;5055486;28;45551;-60
2022/07/22 07:08:54;;;;;;;;;16.67;16.00;;;;;20.98;64.43;101256.47;5054309;28;46218;-64
2022/07/22 07:11:20;;;;;;;;;21.00;19.00;;;;;21.08;64.06;101243.81;5054947;28;45796;-61
2022/07/22 07:13:46;;;;;;;;;24.33;18.00;;;;;21.10;64.14;101239.13;5054907;28;45839;-61
2022/07/22 07:16:12;;;;;;;;;22.33;20.33;;;;;21.08;63.91;101230.28;5056324;28;45336;-61
2022/07/22 07:18:37;;;;;;;;;25.67;22.00;;;;;21.18;63.79;101225.75;5055949;28;46775;-62
2022/07/22 07:21:04;;;;;;;;;16.00;15.00;;;;;21.20;64.16;101212.94;5056333;28;45197;-61
2022/07/22 07:23:29;;;;;;;;;23.00;21.00;;;;;21.23;63.33;101200.16;5056547;28;45333;-60
2022/07/22 07:25:55;;;;;;;;;17.00;17.00;;;;;21.32;63.27;101213.72;5054847;28;45599;-62
2022/07/22 07:28:20;;;;;;;;;18.00;18.00;;;;;21.42;63.34;101211.03;5055592;28;45837;-61
2022/07/22 07:30:46;;;;;;;;;20.67;19.00;;;;;21.47;63.19;101209.59;5056251;28;45292;-62
2022/07/22 07:33:12;;;;;;;;;19.67;17.67;;;;;21.56;63.09;101207.91;5056541;28;45453;-59
2022/07/22 07:35:38;;;;;;;;;24.33;19.33;;;;;21.68;62.99;101205.91;5055026;28;45515;-61
2022/07/22 07:38:03;;;;;;;;;25.00;22.00;;;;;21.72;62.35;101191.94;5056105;28;45939;-61
2022/07/22 07:40:29;;;;;;;;;18.00;16.33;;;;;21.86;62.34;101203.31;5055136;28;45839;-62
2022/07/22 07:42:54;;;;;;;;;23.00;19.67;;;;;21.99;62.13;101214.72;5055849;28;45366;-61
2022/07/22 07:45:20;;;;;;;;;21.33;20.33;;;;;22.06;61.38;101215.88;5055055;28;45625;-62
2022/07/22 07:47:45;;;;;;;;;18.00;15.00;;;;;22.19;61.61;101226.41;5055730;28;45828;-62
2022/07/22 07:50:11;;;;;;;;;20.00;15.33;;;;;22.29;61.52;101211.84;5055927;28;45245;-62
2022/07/22 07:52:39;;;;;;;;;27.33;23.00;;;;;22.30;60.50;101202.72;5056261;28;45359;-61
2022/07/22 07:55:05;;;;;;;;;22.00;21.00;;;;;22.36;61.02;101218.38;5056063;28;45347;-63
2022/07/22 07:57:31;;;;;;;;;17.33;17.33;;;;;22.50;60.38;101235.16;5055884;28;46404;-62
2022/07/22 07:59:56;;;;;;;;;17.67;17.67;;;;;22.57;61.31;101228.16;5054186;28;45676;-60
2022/07/22 08:02:22;;;;;;;;;23.00;19.00;;;;;22.53;60.40;101210.50;5055931;28;45391;-62
2022/07/22 08:04:47;;;;;;;;;23.00;20.00;;;;;22.73;60.36;101233.81;5057588;28;45416;-61
2022/07/22 08:07:12;;;;;;;;;19.00;19.00;;;;;22.82;59.59;101232.91;5057943;28;46980;-61
2022/07/22 08:09:38;;;;;;;;;25.33;19.00;;;;;22.86;59.96;101228.91;5057600;28;50468;-62
2022/07/22 08:12:05;;;;;;;;;23.00;19.33;;;;;22.92;59.60;101228.34;5060240;28;45396;-61
2022/07/22 08:14:30;;;;;;;;;23.00;20.67;;;;;22.90;59.03;101214.03;5059506;28;45508;-62
2022/07/22 08:16:56;;;;;;;;;21.00;19.00;;;;;22.99;59.94;101220.44;5060227;28;46141;-61
2022/07/22 08:19:21;;;;;;;;;24.00;21.00;;;;;23.10;59.52;101200.38;5058855;28;45466;-62
2022/07/22 08:21:46;;;;;;;;;22.67;17.67;;;;;23.26;59.73;101211.41;5060161;28;45378;-59
2022/07/22 08:24:12;;;;;;;;;17.00;17.00;;;;;23.38;58.40;101207.47;5059442;28;45611;-62
2022/07/22 08:26:37;;;;;;;;;19.00;18.33;;;;;23.48;58.00;101199.28;5058762;28;45368;-61
2022/07/22 08:29:05;;;;;;;;;19.67;17.33;;;;;23.54;59.27;101199.47;5058981;28;45279;-61
2022/07/22 08:31:34;;;;;;;;;22.33;19.33;;;;;23.60;58.55;101191.78;5059317;28;45985;-62
2022/07/22 08:34:01;;;;;;;;;22.00;19.00;;;;;23.71;58.11;101205.13;5058984;28;45412;-62
2022/07/22 08:36:27;;;;;;;;;18.67;17.33;;;;;23.74;58.25;101204.81;5058749;28;45411;-62
2022/07/22 08:38:52;;;;;;;;;17.67;17.33;;;;;23.85;56.90;101206.44;5040676;28;46230;-61
2022/07/22 08:41:20;;;;;;;;;40.33;36.00;;;;;23.80;57.05;101196.84;5058941;28;45286;-61
2022/07/22 08:43:46;;;;;;;;;28.67;28.00;;;;;23.79;57.19;101205.16;5058923;28;45442;-60
2022/07/22 08:46:12;;;;;;;;;29.67;27.33;;;;;23.82;57.82;101192.13;5059441;28;46569;-61
2022/07/22 08:48:38;;;;;;;;;44.33;36.00;;;;;23.78;57.49;101179.88;5059229;28;45430;-60
2022/07/22 08:51:04;;;;;;;;;27.67;23.00;;;;;23.91;57.67;101184.06;5058997;28;45378;-61
2022/07/22 08:53:30;;;;;;;;;28.33;27.00;;;;;23.96;57.67;101166.28;5058795;28;45568;-61
2022/07/22 08:55:56;;;;;;;;;21.33;21.00;;;;;24.00;57.70;101155.94;5058316;28;45329;-61
2022/07/22 08:58:21;;;;;;;;;22.33;19.67;;;;;24.21;56.22;101150.09;5058754;28;45395;-65
2022/07/22 09:01:03;;;;;;;;;23.00;19.00;;;;;24.29;55.90;101139.28;5058462;28;45633;-60
2022/07/22 09:03:29;;;;;;;;;21.67;18.00;;;;;24.38;56.06;101132.94;5057273;28;45425;-61
2022/07/22 09:05:55;;;;;;;;;18.25;17.25;;;;;24.46;55.55;101110.34;5057904;28;45740;-62
2022/07/22 09:08:21;;;;;;;;;26.00;20.50;;;;;24.61;55.45;101095.97;5058286;28;45354;-61
2022/07/22 09:10:47;;;;;;;;;23.50;22.50;;;;;24.71;54.79;101080.34;5058355;28;45302;-60
2022/07/22 09:13:15;;;;;;;;;24.25;21.75;;;;;24.82;55.93;101090.06;5058663;28;45536;-62
2022/07/22 09:15:52;;;;;;;;;18.75;18.75;;;;;24.92;55.45;101109.84;5058115;28;45488;-62
2022/07/22 09:18:17;;;;;;;;;26.25;19.50;;;;;25.11;54.45;101127.75;5058484;28;45364;-61
2022/07/22 09:20:44;;;;;;;;;20.00;20.00;;;;;25.20;54.52;101132.19;5058209;28;45469;-61
2022/07/22 09:23:22;;;;;;;;;20.00;18.25;;;;;25.23;53.71;101156.34;5058356;28;45559;-60
2022/07/22 09:25:48;;;;;;;;;20.00;20.00;;;;;25.39;54.86;101173.72;5057575;28;45405;-62
2022/07/22 09:28:16;;;;;;;;;20.25;17.25;;;;;25.54;53.70;101177.50;5057816;28;45353;-60
2022/07/22 09:30:54;;;;;;;;;23.50;18.25;;;;;25.65;53.00;101187.19;5058321;28;45350;-60
2022/07/22 09:33:21;;;;;;;;;21.50;20.00;;;;;25.66;52.76;101178.88;5058526;28;45446;-61
2022/07/22 09:35:48;;;;;;;;;25.50;22.00;;;;;25.72;53.02;101183.66;5057756;28;45441;-62
2022/07/22 09:38:15;;;;;;;;;18.75;18.00;;;;;25.87;53.57;101171.06;5056182;28;45315;-60
2022/07/22 09:40:46;;;;;;;;;16.75;16.75;;;;;25.94;52.36;101165.78;5058225;28;45355;-61
2022/07/22 09:43:17;;;;;;;;;27.50;20.25;;;;;26.03;52.81;101162.00;5057910;28;45318;-61
2022/07/22 09:45:50;;;;;;;;;23.00;22.25;;;;;26.07;51.59;101140.72;5073357;28;45404;-62
2022/07/22 09:48:18;;;;;;;;;21.25;19.25;;;;;26.04;52.64;101138.31;5056121;28;45358;-59
2022/07/22 09:50:44;;;;;;;;;20.00;19.50;;;;;26.08;51.98;101147.88;5057758;28;45438;-62
2022/07/22 09:53:10;;;;;;;;;22.00;19.00;;;;;26.08;52.64;101154.19;5058247;28;45989;-61
2022/07/22 09:55:38;;;;;;;;;23.50;22.50;;;;;26.13;52.42;101149.03;5057835;28;45410;-62
2022/07/22 09:58:05;;;;;;;;;21.25;20.00;;;;;26.18;51.90;101156.72;5057223;28;45342;-61
2022/07/22 10:00:31;;;;;;;;;21.25;21.25;;;;;26.22;52.01;101162.66;5058417;28;45284;-63
2022/07/22 10:03:01;;;;;;;;;26.00;22.00;;;;;26.23;51.94;101148.88;5058259;28;45558;-62
2022/07/22 10:05:38;;;;;;;;;21.50;20.75;;;;;26.27;52.54;101155.66;5057182;28;46443;-62
2022/07/22 10:08:05;;;;;;;;;23.50;23.00;;;;;26.31;51.63;101151.56;5057541;28;45404;-62
2022/07/22 10:10:33;;;;;;;;;23.50;17.00;;;;;26.34;51.97;101151.22;5056132;28;45509;-60
2022/07/22 10:13:00;;;;;;;;;19.75;17.75;;;;;26.35;53.28;101152.91;5056010;28;45506;-60
2022/07/22 10:15:31;;;;;;;;;19.00;18.00;;;;;26.33;52.20;101154.97;5056962;28;46316;-60
2022/07/22 10:18:05;;;;;;;;;23.75;21.25;;;;;26.23;51.31;101142.56;5057270;28;45436;-61
2022/07/22 10:20:32;;;;;;;;;29.00;24.00;;;;;26.20;52.13;101140.19;5057163;28;45599;-60
2022/07/22 10:23:02;;;;;;;;;24.00;18.50;;;;;26.17;52.28;101144.09;5057961;28;45440;-60
2022/07/22 10:25:31;;;;;;;;;13.25;12.00;;;;;26.13;53.04;101137.28;5055600;28;45520;-61
2022/07/22 10:28:00;;;;;;;;;24.00;19.75;;;;;26.07;52.50;101136.13;5056172;28;45311;-58
2022/07/22 10:30:30;;;;;;;;;25.25;20.25;;;;;25.98;52.49;101139.88;5057113;28;45425;-60
2022/07/22 10:33:11;;;;;;;;;17.50;17.50;;;;;25.90;52.66;101136.31;5056907;28;45267;-62
2022/07/22 10:36:01;;;;;;;;;26.25;23.75;;;;;25.73;53.05;101122.72;5056532;28;46358;-62
2022/07/22 10:38:28;;;;;;;;;22.50;21.00;;;;;25.57;53.36;101118.09;5072132;28;45446;-61
2022/07/22 10:40:56;;;;;;;;;25.50;21.00;;;;;25.52;52.66;101127.78;5056954;28;45341;-61
2022/07/22 10:43:27;;;;;;;;;21.00;19.50;;;;;25.33;54.94;101128.13;5056603;28;45243;-59
2022/07/22 10:46:02;;;;;;;;;11.25;11.25;;;;;25.22;55.28;101121.13;5055757;28;48108;-61
2022/07/22 10:48:37;;;;;;;;;23.00;19.75;;;;;25.17;56.91;101093.59;5056758;28;45402;-60
2022/07/22 10:51:17;;;;;;;;;37.50;24.50;;;;;25.02;58.46;101068.91;5056982;28;45408;-61
2022/07/22 10:53:46;;;;;;;;;21.50;19.50;;;;;24.84;58.94;101040.94;5057888;28;45256;-62
2022/07/22 10:56:21;;;;;;;;;27.00;25.00;;;;;24.68;60.43;101020.84;5057080;28;46178;-60
2022/07/22 10:58:55;;;;;;;;;31.67;27.67;;;;;24.45;61.39;101027.94;5056398;28;45404;-61
2022/07/22 11:01:24;;;;;;;;;28.33;24.00;;;;;24.34;61.74;101022.78;5055235;28;45315;-62
2022/07/22 11:03:50;;;;;;;;;26.00;23.33;;;;;24.18;61.99;101009.97;5056984;28;45424;-62
2022/07/22 11:06:27;;;;;;;;;28.33;25.33;;;;;24.10;62.16;100996.38;5056431;28;46887;-61